메인 페이지
METAR-TAF:

METAR-TAF

공항 :

암만, 요르단

위도: 31-59N, 경도: 035-59E, 고도: 767m

현재 날씨관측

예보는 25분 전, 19:00시(UTC)에 발표되었습니다.
3kt
온도 23°C
습도 47%
기압 1015 hPa
시정: 6000m

METAR: OJAM 201900Z 27003KT 6000 NSC 23/11 Q1015 NOSIG

시각: 22:25 (19:25 UTC)

예보

예보는 2 시간 35분 전, 16:50시(UTC)에 발표되었습니다.
예보 대상 시간: 20일 18시부터 21일 24시까지 (UTC)
북서8kt
시정: 6000m
일시적
21일 02시부터 21일 08시까지 (UTC)
여러 방향의 바람 2kt

TAF: OJAM 201650Z 2018/2124 31008KT 6000 NSC TEMPO 2102/2108 VRB02KT

4,000개 이상의 공항 관측 자료 및 예보 (METAR 및 TAF 보고).

지도상에서 검색 가능한 기상관측소가 노란 점과 빨간 점으로 표시되어 있습니다.

기상관측소 명을 보려면 표시 위로 마우스를 이동하세요.

날씨 관측과 예보를 보려면 클릭하세요.

지도 변경 : 확대하려면 엑스 표시가 있는 녹색 버튼, 축소하려면 빼기 표시가 있는 녹색 버튼, 다음 페이지의 지도를 보려면 녹색 화살표를 클릭하세요.


METAR-TAF: